HSPN

Port Sudan New International Airport

Port Sudan, Sudan
METAR HSPN 151400Z 07007KT CAVOK 39/09 Q1002
Observed Flight Rules
Jul-15 @ 14:00 UTC (7 hours ago) Visual Flight Rules
Wind Visibility Clouds
70° at 7 knots 10,000+ meters
  • Clear skies
Temperatures Readings
Current 39°C / 102°F
Dewpoint 9°C / 48°F
Humidity 16%
Altimeter 29.59" Hg
Pressure 1002 hPa
Elevation 138
METAR HSPN 151400Z 07007KT CAVOK 39/09 Q1002
Observed Flight Rules
Jul-15 @ 14:00 UTC
(7 hours ago)
VFR
Wind Visibility
70° at 7 knots 10,000+ meters
Clouds
  • Clear skies
Temperature Dewpoint
39°C / 102°F 9°C / 48°F
Humidity Altimeter Pressure
16% 29.59" Hg 1002 hPa